Aviation Digital Data Service (ADDS)

Output produced by TAFs form (0205 UTC 26 April 2017)
found at http://www.aviationweather.gov/adds/tafs/
 
KABE 260155Z 2602/2624 06012KT P6SM -SHRA SCT008 OVC015 
     TEMPO 2602/2604 3SM -SHRA BR OVC008 
     FM260400 06008KT 6SM -SHRA BR OVC005 
     FM260600 06008KT 3SM BR OVC005 
     FM261600 04005KT 5SM BR OVC010 
     FM261800 02005KT P6SM OVC020